sensor_id;sensor_type;location;lat;lon;timestamp;P1;durP1;ratioP1;P2;durP2;ratioP2
41077;SDS011;26823;42.662;23.352;2023-07-24T00:01:51;14.45;;;9.20;;
41077;SDS011;26823;42.662;23.352;2023-07-24T00:04:17;13.98;;;9.52;;
41077;SDS011;26823;42.662;23.352;2023-07-24T00:06:42;13.98;;;9.48;;
41077;SDS011;26823;42.662;23.352;2023-07-24T00:09:08;11.82;;;8.68;;
41077;SDS011;26823;42.662;23.352;2023-07-24T00:11:33;14.18;;;9.32;;
41077;SDS011;26823;42.662;23.352;2023-07-24T00:13:58;13.82;;;8.65;;
41077;SDS011;26823;42.662;23.352;2023-07-24T00:16:24;12.43;;;8.48;;
41077;SDS011;26823;42.662;23.352;2023-07-24T00:18:49;11.77;;;8.93;;
41077;SDS011;26823;42.662;23.352;2023-07-24T00:21:14;14.68;;;9.20;;
41077;SDS011;26823;42.662;23.352;2023-07-24T00:23:40;12.07;;;8.43;;
41077;SDS011;26823;42.662;23.352;2023-07-24T00:26:06;12.82;;;8.18;;
41077;SDS011;26823;42.662;23.352;2023-07-24T00:28:32;11.35;;;8.32;;
41077;SDS011;26823;42.662;23.352;2023-07-24T00:30:58;10.50;;;8.00;;
41077;SDS011;26823;42.662;23.352;2023-07-24T00:33:23;14.43;;;9.52;;
41077;SDS011;26823;42.662;23.352;2023-07-24T00:35:48;15.13;;;9.48;;
41077;SDS011;26823;42.662;23.352;2023-07-24T00:38:14;13.13;;;8.63;;
41077;SDS011;26823;42.662;23.352;2023-07-24T00:40:39;15.05;;;8.45;;
41077;SDS011;26823;42.662;23.352;2023-07-24T00:43:04;11.70;;;8.48;;
41077;SDS011;26823;42.662;23.352;2023-07-24T00:45:30;12.65;;;8.55;;
41077;SDS011;26823;42.662;23.352;2023-07-24T00:47:55;12.65;;;8.52;;
41077;SDS011;26823;42.662;23.352;2023-07-24T00:50:21;13.18;;;9.52;;
41077;SDS011;26823;42.662;23.352;2023-07-24T00:52:46;17.35;;;8.35;;
41077;SDS011;26823;42.662;23.352;2023-07-24T00:55:12;11.30;;;8.05;;
41077;SDS011;26823;42.662;23.352;2023-07-24T00:57:38;13.77;;;8.30;;
41077;SDS011;26823;42.662;23.352;2023-07-24T01:00:05;13.32;;;8.80;;
41077;SDS011;26823;42.662;23.352;2023-07-24T01:02:31;11.70;;;8.50;;
41077;SDS011;26823;42.662;23.352;2023-07-24T01:04:57;12.68;;;8.60;;
41077;SDS011;26823;42.662;23.352;2023-07-24T01:07:22;11.70;;;8.38;;
41077;SDS011;26823;42.662;23.352;2023-07-24T01:09:48;11.73;;;8.57;;
41077;SDS011;26823;42.662;23.352;2023-07-24T01:14:43;15.23;;;8.95;;
41077;SDS011;26823;42.662;23.352;2023-07-24T01:17:18;16.25;;;8.85;;
41077;SDS011;26823;42.662;23.352;2023-07-24T01:19:55;13.73;;;8.52;;
41077;SDS011;26823;42.662;23.352;2023-07-24T01:27:26;13.10;;;8.98;;
41077;SDS011;26823;42.662;23.352;2023-07-24T01:29:51;12.85;;;9.32;;
41077;SDS011;26823;42.662;23.352;2023-07-24T01:32:17;10.80;;;8.15;;
41077;SDS011;26823;42.662;23.352;2023-07-24T01:34:44;11.93;;;8.27;;
41077;SDS011;26823;42.662;23.352;2023-07-24T01:37:11;13.00;;;8.75;;
41077;SDS011;26823;42.662;23.352;2023-07-24T01:39:38;15.15;;;9.05;;
41077;SDS011;26823;42.662;23.352;2023-07-24T01:42:06;12.02;;;8.77;;
41077;SDS011;26823;42.662;23.352;2023-07-24T01:44:31;10.48;;;8.48;;
41077;SDS011;26823;42.662;23.352;2023-07-24T01:46:57;14.18;;;8.40;;
41077;SDS011;26823;42.662;23.352;2023-07-24T01:49:22;11.00;;;8.50;;
41077;SDS011;26823;42.662;23.352;2023-07-24T01:51:47;10.75;;;8.30;;
41077;SDS011;26823;42.662;23.352;2023-07-24T01:54:13;10.68;;;8.15;;
41077;SDS011;26823;42.662;23.352;2023-07-24T01:56:39;11.50;;;7.93;;
41077;SDS011;26823;42.662;23.352;2023-07-24T01:59:04;11.63;;;8.27;;
41077;SDS011;26823;42.662;23.352;2023-07-24T02:01:30;10.13;;;7.78;;
41077;SDS011;26823;42.662;23.352;2023-07-24T02:03:56;11.82;;;8.10;;
41077;SDS011;26823;42.662;23.352;2023-07-24T02:06:21;11.88;;;8.38;;
41077;SDS011;26823;42.662;23.352;2023-07-24T02:08:47;10.93;;;7.90;;
41077;SDS011;26823;42.662;23.352;2023-07-24T02:11:14;10.88;;;8.45;;
41077;SDS011;26823;42.662;23.352;2023-07-24T02:13:40;10.80;;;8.55;;
41077;SDS011;26823;42.662;23.352;2023-07-24T02:16:05;12.73;;;8.40;;
41077;SDS011;26823;42.662;23.352;2023-07-24T02:18:31;11.80;;;8.35;;
41077;SDS011;26823;42.662;23.352;2023-07-24T02:20:56;13.15;;;8.98;;
41077;SDS011;26823;42.662;23.352;2023-07-24T02:23:22;12.88;;;8.88;;
41077;SDS011;26823;42.662;23.352;2023-07-24T02:25:50;13.32;;;8.02;;
41077;SDS011;26823;42.662;23.352;2023-07-24T02:28:17;14.13;;;8.80;;
41077;SDS011;26823;42.662;23.352;2023-07-24T02:30:42;13.27;;;9.05;;
41077;SDS011;26823;42.662;23.352;2023-07-24T02:33:07;15.25;;;10.15;;
41077;SDS011;26823;42.662;23.352;2023-07-24T02:35:38;15.57;;;9.80;;
41077;SDS011;26823;42.662;23.352;2023-07-24T02:38:04;12.95;;;9.18;;
41077;SDS011;26823;42.662;23.352;2023-07-24T02:40:30;12.38;;;8.52;;
41077;SDS011;26823;42.662;23.352;2023-07-24T02:42:55;12.10;;;9.35;;
41077;SDS011;26823;42.662;23.352;2023-07-24T02:45:21;13.60;;;10.40;;
41077;SDS011;26823;42.662;23.352;2023-07-24T02:47:46;12.98;;;9.35;;
41077;SDS011;26823;42.662;23.352;2023-07-24T02:50:11;14.13;;;9.02;;
41077;SDS011;26823;42.662;23.352;2023-07-24T02:52:37;18.02;;;10.40;;
41077;SDS011;26823;42.662;23.352;2023-07-24T02:55:02;14.10;;;9.30;;
41077;SDS011;26823;42.662;23.352;2023-07-24T02:57:27;15.85;;;10.20;;
41077;SDS011;26823;42.662;23.352;2023-07-24T02:59:53;12.95;;;9.13;;
41077;SDS011;26823;42.662;23.352;2023-07-24T03:02:18;13.02;;;9.43;;
41077;SDS011;26823;42.662;23.352;2023-07-24T03:04:43;14.88;;;9.80;;
41077;SDS011;26823;42.662;23.352;2023-07-24T03:07:09;15.95;;;9.00;;
41077;SDS011;26823;42.662;23.352;2023-07-24T03:09:34;15.13;;;9.90;;
41077;SDS011;26823;42.662;23.352;2023-07-24T03:11:59;13.77;;;10.05;;
41077;SDS011;26823;42.662;23.352;2023-07-24T03:14:25;17.45;;;9.40;;
41077;SDS011;26823;42.662;23.352;2023-07-24T03:16:51;16.27;;;10.02;;
41077;SDS011;26823;42.662;23.352;2023-07-24T03:19:16;15.05;;;10.02;;
41077;SDS011;26823;42.662;23.352;2023-07-24T03:21:42;15.60;;;9.55;;
41077;SDS011;26823;42.662;23.352;2023-07-24T03:24:08;16.20;;;9.50;;
41077;SDS011;26823;42.662;23.352;2023-07-24T03:26:33;13.90;;;9.40;;
41077;SDS011;26823;42.662;23.352;2023-07-24T03:28:59;15.45;;;9.88;;
41077;SDS011;26823;42.662;23.352;2023-07-24T03:31:25;14.00;;;9.70;;
41077;SDS011;26823;42.662;23.352;2023-07-24T03:33:50;16.55;;;9.68;;
41077;SDS011;26823;42.662;23.352;2023-07-24T03:36:16;15.80;;;10.02;;
41077;SDS011;26823;42.662;23.352;2023-07-24T03:38:41;14.35;;;9.85;;
41077;SDS011;26823;42.662;23.352;2023-07-24T03:41:06;14.50;;;9.55;;
41077;SDS011;26823;42.662;23.352;2023-07-24T03:43:32;14.43;;;10.18;;
41077;SDS011;26823;42.662;23.352;2023-07-24T03:45:57;15.93;;;9.82;;
41077;SDS011;26823;42.662;23.352;2023-07-24T03:48:23;16.95;;;10.82;;
41077;SDS011;26823;42.662;23.352;2023-07-24T03:50:49;13.85;;;9.90;;
41077;SDS011;26823;42.662;23.352;2023-07-24T03:53:16;18.10;;;10.43;;
41077;SDS011;26823;42.662;23.352;2023-07-24T03:55:41;18.67;;;10.65;;
41077;SDS011;26823;42.662;23.352;2023-07-24T03:58:06;16.85;;;10.75;;
41077;SDS011;26823;42.662;23.352;2023-07-24T04:00:32;16.60;;;10.70;;
41077;SDS011;26823;42.662;23.352;2023-07-24T04:02:57;16.73;;;9.95;;
41077;SDS011;26823;42.662;23.352;2023-07-24T04:05:23;16.38;;;10.18;;
41077;SDS011;26823;42.662;23.352;2023-07-24T04:07:48;19.52;;;10.50;;
41077;SDS011;26823;42.662;23.352;2023-07-24T04:10:13;15.95;;;10.55;;
41077;SDS011;26823;42.662;23.352;2023-07-24T04:12:39;17.83;;;10.45;;
41077;SDS011;26823;42.662;23.352;2023-07-24T04:15:04;17.55;;;10.82;;
41077;SDS011;26823;42.662;23.352;2023-07-24T04:17:30;17.45;;;10.82;;
41077;SDS011;26823;42.662;23.352;2023-07-24T04:19:57;17.15;;;10.52;;
41077;SDS011;26823;42.662;23.352;2023-07-24T04:22:22;15.10;;;9.95;;
41077;SDS011;26823;42.662;23.352;2023-07-24T04:24:48;19.45;;;10.43;;
41077;SDS011;26823;42.662;23.352;2023-07-24T04:27:13;17.58;;;11.40;;
41077;SDS011;26823;42.662;23.352;2023-07-24T04:29:38;19.25;;;11.25;;
41077;SDS011;26823;42.662;23.352;2023-07-24T04:32:04;16.48;;;10.38;;
41077;SDS011;26823;42.662;23.352;2023-07-24T04:34:29;21.90;;;10.80;;
41077;SDS011;26823;42.662;23.352;2023-07-24T04:36:54;17.40;;;10.93;;
41077;SDS011;26823;42.662;23.352;2023-07-24T04:39:20;15.23;;;10.45;;
41077;SDS011;26823;42.662;23.352;2023-07-24T04:41:45;15.32;;;9.48;;
41077;SDS011;26823;42.662;23.352;2023-07-24T04:44:10;15.43;;;10.40;;
41077;SDS011;26823;42.662;23.352;2023-07-24T04:46:36;17.65;;;10.32;;
41077;SDS011;26823;42.662;23.352;2023-07-24T04:49:01;14.10;;;10.07;;
41077;SDS011;26823;42.662;23.352;2023-07-24T04:51:26;17.13;;;9.95;;
41077;SDS011;26823;42.662;23.352;2023-07-24T04:53:53;16.10;;;10.40;;
41077;SDS011;26823;42.662;23.352;2023-07-24T04:56:18;16.23;;;10.60;;
41077;SDS011;26823;42.662;23.352;2023-07-24T04:58:44;16.63;;;10.48;;
41077;SDS011;26823;42.662;23.352;2023-07-24T05:01:15;17.58;;;11.00;;
41077;SDS011;26823;42.662;23.352;2023-07-24T05:03:41;17.15;;;11.32;;
41077;SDS011;26823;42.662;23.352;2023-07-24T05:06:06;16.67;;;10.15;;
41077;SDS011;26823;42.662;23.352;2023-07-24T05:08:32;17.95;;;10.70;;
41077;SDS011;26823;42.662;23.352;2023-07-24T05:10:57;14.40;;;9.98;;
41077;SDS011;26823;42.662;23.352;2023-07-24T05:13:23;17.15;;;10.57;;
41077;SDS011;26823;42.662;23.352;2023-07-24T05:15:49;15.38;;;10.45;;
41077;SDS011;26823;42.662;23.352;2023-07-24T05:18:14;14.23;;;9.38;;
41077;SDS011;26823;42.662;23.352;2023-07-24T05:20:47;17.30;;;11.32;;
41077;SDS011;26823;42.662;23.352;2023-07-24T05:23:13;13.63;;;9.55;;
41077;SDS011;26823;42.662;23.352;2023-07-24T05:25:39;15.80;;;10.68;;
41077;SDS011;26823;42.662;23.352;2023-07-24T05:28:05;18.88;;;11.75;;
41077;SDS011;26823;42.662;23.352;2023-07-24T05:30:30;16.75;;;10.13;;
41077;SDS011;26823;42.662;23.352;2023-07-24T05:32:56;15.60;;;10.32;;
41077;SDS011;26823;42.662;23.352;2023-07-24T05:35:21;15.55;;;10.40;;
41077;SDS011;26823;42.662;23.352;2023-07-24T05:37:47;12.93;;;10.18;;
41077;SDS011;26823;42.662;23.352;2023-07-24T05:40:12;16.17;;;10.38;;
41077;SDS011;26823;42.662;23.352;2023-07-24T05:42:37;13.98;;;9.80;;
41077;SDS011;26823;42.662;23.352;2023-07-24T05:45:07;15.48;;;10.45;;
41077;SDS011;26823;42.662;23.352;2023-07-24T05:47:33;15.73;;;10.32;;
41077;SDS011;26823;42.662;23.352;2023-07-24T05:49:58;17.10;;;10.90;;
41077;SDS011;26823;42.662;23.352;2023-07-24T05:52:23;17.55;;;9.88;;
41077;SDS011;26823;42.662;23.352;2023-07-24T05:54:49;16.77;;;9.93;;
41077;SDS011;26823;42.662;23.352;2023-07-24T05:57:14;16.38;;;10.02;;
41077;SDS011;26823;42.662;23.352;2023-07-24T05:59:39;14.10;;;10.15;;
41077;SDS011;26823;42.662;23.352;2023-07-24T06:02:05;13.98;;;9.13;;
41077;SDS011;26823;42.662;23.352;2023-07-24T06:04:31;12.32;;;9.05;;
41077;SDS011;26823;42.662;23.352;2023-07-24T06:06:56;14.95;;;9.35;;
41077;SDS011;26823;42.662;23.352;2023-07-24T06:09:21;17.55;;;9.68;;
41077;SDS011;26823;42.662;23.352;2023-07-24T06:11:47;16.13;;;9.23;;
41077;SDS011;26823;42.662;23.352;2023-07-24T06:14:12;13.70;;;9.30;;
41077;SDS011;26823;42.662;23.352;2023-07-24T06:16:37;14.77;;;9.75;;
41077;SDS011;26823;42.662;23.352;2023-07-24T06:19:03;13.25;;;9.20;;
41077;SDS011;26823;42.662;23.352;2023-07-24T06:21:28;13.95;;;9.52;;
41077;SDS011;26823;42.662;23.352;2023-07-24T06:23:53;15.02;;;9.45;;
41077;SDS011;26823;42.662;23.352;2023-07-24T06:26:19;13.18;;;9.32;;
41077;SDS011;26823;42.662;23.352;2023-07-24T06:28:44;19.60;;;9.40;;
41077;SDS011;26823;42.662;23.352;2023-07-24T06:31:10;13.55;;;9.55;;
41077;SDS011;26823;42.662;23.352;2023-07-24T06:33:35;14.35;;;9.00;;
41077;SDS011;26823;42.662;23.352;2023-07-24T06:36:00;13.50;;;8.73;;
41077;SDS011;26823;42.662;23.352;2023-07-24T06:38:33;15.40;;;9.88;;
41077;SDS011;26823;42.662;23.352;2023-07-24T06:40:59;18.48;;;8.75;;
41077;SDS011;26823;42.662;23.352;2023-07-24T06:43:24;12.80;;;8.27;;
41077;SDS011;26823;42.662;23.352;2023-07-24T06:45:49;12.90;;;9.10;;
41077;SDS011;26823;42.662;23.352;2023-07-24T06:48:15;13.43;;;7.75;;
41077;SDS011;26823;42.662;23.352;2023-07-24T06:50:40;16.00;;;9.52;;
41077;SDS011;26823;42.662;23.352;2023-07-24T06:53:05;11.93;;;7.72;;
41077;SDS011;26823;42.662;23.352;2023-07-24T06:55:31;11.40;;;7.78;;
41077;SDS011;26823;42.662;23.352;2023-07-24T06:57:56;9.85;;;7.63;;
41077;SDS011;26823;42.662;23.352;2023-07-24T07:00:21;15.32;;;7.70;;
41077;SDS011;26823;42.662;23.352;2023-07-24T07:02:47;9.98;;;7.63;;
41077;SDS011;26823;42.662;23.352;2023-07-24T07:05:13;11.40;;;7.43;;
41077;SDS011;26823;42.662;23.352;2023-07-24T07:07:38;9.38;;;7.40;;
41077;SDS011;26823;42.662;23.352;2023-07-24T07:10:04;9.00;;;7.40;;
41077;SDS011;26823;42.662;23.352;2023-07-24T07:12:30;9.07;;;6.88;;
41077;SDS011;26823;42.662;23.352;2023-07-24T07:14:55;10.93;;;7.28;;
41077;SDS011;26823;42.662;23.352;2023-07-24T07:17:21;12.38;;;7.55;;
41077;SDS011;26823;42.662;23.352;2023-07-24T07:19:46;11.13;;;7.22;;
41077;SDS011;26823;42.662;23.352;2023-07-24T07:22:11;11.68;;;7.72;;
41077;SDS011;26823;42.662;23.352;2023-07-24T07:24:37;10.60;;;7.13;;
41077;SDS011;26823;42.662;23.352;2023-07-24T07:27:02;10.13;;;7.13;;
41077;SDS011;26823;42.662;23.352;2023-07-24T07:29:28;11.55;;;7.68;;
41077;SDS011;26823;42.662;23.352;2023-07-24T07:31:54;9.02;;;7.65;;
41077;SDS011;26823;42.662;23.352;2023-07-24T07:34:19;11.15;;;7.80;;
41077;SDS011;26823;42.662;23.352;2023-07-24T07:36:44;11.57;;;7.53;;
41077;SDS011;26823;42.662;23.352;2023-07-24T07:39:10;12.30;;;7.95;;
41077;SDS011;26823;42.662;23.352;2023-07-24T07:41:35;11.02;;;8.00;;
41077;SDS011;26823;42.662;23.352;2023-07-24T07:44:01;12.60;;;8.52;;
41077;SDS011;26823;42.662;23.352;2023-07-24T07:46:26;12.23;;;8.38;;
41077;SDS011;26823;42.662;23.352;2023-07-24T07:48:51;12.93;;;8.65;;
41077;SDS011;26823;42.662;23.352;2023-07-24T07:51:17;16.85;;;7.88;;
41077;SDS011;26823;42.662;23.352;2023-07-24T07:53:42;10.70;;;7.95;;
41077;SDS011;26823;42.662;23.352;2023-07-24T07:56:07;10.60;;;7.78;;
41077;SDS011;26823;42.662;23.352;2023-07-24T07:58:33;16.70;;;7.60;;
41077;SDS011;26823;42.662;23.352;2023-07-24T08:01:02;17.88;;;8.93;;
41077;SDS011;26823;42.662;23.352;2023-07-24T08:03:29;13.05;;;8.65;;
41077;SDS011;26823;42.662;23.352;2023-07-24T08:05:56;11.63;;;8.45;;
41077;SDS011;26823;42.662;23.352;2023-07-24T08:08:23;12.13;;;8.32;;
41077;SDS011;26823;42.662;23.352;2023-07-24T08:10:48;12.93;;;8.27;;
41077;SDS011;26823;42.662;23.352;2023-07-24T08:13:13;11.32;;;8.02;;
41077;SDS011;26823;42.662;23.352;2023-07-24T08:15:39;12.45;;;8.95;;
41077;SDS011;26823;42.662;23.352;2023-07-24T08:18:04;17.48;;;9.02;;
41077;SDS011;26823;42.662;23.352;2023-07-24T08:20:30;16.27;;;8.20;;
41077;SDS011;26823;42.662;23.352;2023-07-24T08:22:55;14.30;;;8.68;;
41077;SDS011;26823;42.662;23.352;2023-07-24T08:25:21;12.32;;;8.82;;
41077;SDS011;26823;42.662;23.352;2023-07-24T08:27:46;14.13;;;8.75;;
41077;SDS011;26823;42.662;23.352;2023-07-24T08:30:11;16.35;;;9.18;;
41077;SDS011;26823;42.662;23.352;2023-07-24T08:32:37;19.00;;;9.52;;
41077;SDS011;26823;42.662;23.352;2023-07-24T08:35:05;13.35;;;8.75;;
41077;SDS011;26823;42.662;23.352;2023-07-24T08:37:31;16.80;;;10.02;;
41077;SDS011;26823;42.662;23.352;2023-07-24T08:39:56;12.63;;;9.05;;
41077;SDS011;26823;42.662;23.352;2023-07-24T08:42:21;12.65;;;9.13;;
41077;SDS011;26823;42.662;23.352;2023-07-24T08:44:47;13.50;;;9.05;;
41077;SDS011;26823;42.662;23.352;2023-07-24T08:47:13;12.30;;;9.10;;
41077;SDS011;26823;42.662;23.352;2023-07-24T08:49:40;15.43;;;9.43;;
41077;SDS011;26823;42.662;23.352;2023-07-24T08:52:07;13.90;;;9.60;;
41077;SDS011;26823;42.662;23.352;2023-07-24T08:54:35;12.27;;;8.77;;
41077;SDS011;26823;42.662;23.352;2023-07-24T08:57:02;11.38;;;8.63;;
41077;SDS011;26823;42.662;23.352;2023-07-24T08:59:31;13.10;;;9.27;;
41077;SDS011;26823;42.662;23.352;2023-07-24T09:01:56;14.15;;;8.60;;
41077;SDS011;26823;42.662;23.352;2023-07-24T09:04:22;13.27;;;9.45;;
41077;SDS011;26823;42.662;23.352;2023-07-24T09:06:47;14.90;;;8.88;;
41077;SDS011;26823;42.662;23.352;2023-07-24T09:09:14;14.13;;;8.77;;
41077;SDS011;26823;42.662;23.352;2023-07-24T09:11:49;15.98;;;9.23;;
41077;SDS011;26823;42.662;23.352;2023-07-24T09:14:26;16.67;;;9.15;;
41077;SDS011;26823;42.662;23.352;2023-07-24T09:17:04;14.50;;;9.13;;
41077;SDS011;26823;42.662;23.352;2023-07-24T09:19:31;13.75;;;9.55;;
41077;SDS011;26823;42.662;23.352;2023-07-24T09:22:06;14.38;;;9.48;;
41077;SDS011;26823;42.662;23.352;2023-07-24T09:24:37;15.80;;;10.52;;
41077;SDS011;26823;42.662;23.352;2023-07-24T09:27:04;13.23;;;9.32;;
41077;SDS011;26823;42.662;23.352;2023-07-24T09:29:32;13.73;;;9.60;;
41077;SDS011;26823;42.662;23.352;2023-07-24T09:31:59;16.27;;;10.27;;
41077;SDS011;26823;42.662;23.352;2023-07-24T09:34:24;16.17;;;10.00;;
41077;SDS011;26823;42.662;23.352;2023-07-24T09:36:51;15.98;;;9.95;;
41077;SDS011;26823;42.662;23.352;2023-07-24T09:39:22;13.13;;;8.75;;
41077;SDS011;26823;42.662;23.352;2023-07-24T09:41:48;15.45;;;9.20;;
41077;SDS011;26823;42.662;23.352;2023-07-24T09:44:14;15.55;;;10.05;;
41077;SDS011;26823;42.662;23.352;2023-07-24T09:46:40;16.33;;;9.98;;
41077;SDS011;26823;42.662;23.352;2023-07-24T09:49:08;15.38;;;9.50;;
41077;SDS011;26823;42.662;23.352;2023-07-24T09:51:34;15.25;;;9.50;;
41077;SDS011;26823;42.662;23.352;2023-07-24T09:56:31;12.65;;;9.65;;
41077;SDS011;26823;42.662;23.352;2023-07-24T09:58:57;14.93;;;9.13;;
41077;SDS011;26823;42.662;23.352;2023-07-24T10:01:25;13.10;;;9.77;;
41077;SDS011;26823;42.662;23.352;2023-07-24T10:03:52;17.08;;;9.60;;
41077;SDS011;26823;42.662;23.352;2023-07-24T10:06:18;13.90;;;9.98;;
41077;SDS011;26823;42.662;23.352;2023-07-24T10:08:45;14.48;;;9.95;;
41077;SDS011;26823;42.662;23.352;2023-07-24T10:11:12;15.25;;;10.88;;
41077;SDS011;26823;42.662;23.352;2023-07-24T10:13:39;15.93;;;9.88;;
41077;SDS011;26823;42.662;23.352;2023-07-24T10:16:05;21.23;;;12.57;;
41077;SDS011;26823;42.662;23.352;2023-07-24T10:18:34;14.77;;;9.18;;
41077;SDS011;26823;42.662;23.352;2023-07-24T10:21:07;19.05;;;12.52;;
41077;SDS011;26823;42.662;23.352;2023-07-24T10:23:34;21.48;;;14.15;;
41077;SDS011;26823;42.662;23.352;2023-07-24T10:26:03;24.73;;;12.55;;
41077;SDS011;26823;42.662;23.352;2023-07-24T10:28:34;19.02;;;10.38;;
41077;SDS011;26823;42.662;23.352;2023-07-24T10:31:04;26.35;;;17.60;;
41077;SDS011;26823;42.662;23.352;2023-07-24T10:33:46;14.88;;;10.43;;
41077;SDS011;26823;42.662;23.352;2023-07-24T10:36:16;19.23;;;10.20;;
41077;SDS011;26823;42.662;23.352;2023-07-24T10:38:44;28.55;;;17.50;;
41077;SDS011;26823;42.662;23.352;2023-07-24T10:41:15;29.25;;;18.63;;
41077;SDS011;26823;42.662;23.352;2023-07-24T10:43:42;29.92;;;16.30;;
41077;SDS011;26823;42.662;23.352;2023-07-24T10:46:11;25.02;;;14.80;;
41077;SDS011;26823;42.662;23.352;2023-07-24T10:48:37;21.58;;;12.85;;
41077;SDS011;26823;42.662;23.352;2023-07-24T10:51:07;18.38;;;10.93;;
41077;SDS011;26823;42.662;23.352;2023-07-24T10:53:34;26.10;;;15.93;;
41077;SDS011;26823;42.662;23.352;2023-07-24T10:56:01;21.63;;;10.50;;
41077;SDS011;26823;42.662;23.352;2023-07-24T10:58:27;20.85;;;11.60;;
41077;SDS011;26823;42.662;23.352;2023-07-24T11:00:52;23.13;;;12.32;;
41077;SDS011;26823;42.662;23.352;2023-07-24T11:03:18;26.42;;;16.17;;
41077;SDS011;26823;42.662;23.352;2023-07-24T11:05:45;20.65;;;11.27;;
41077;SDS011;26823;42.662;23.352;2023-07-24T11:08:15;19.67;;;12.38;;
41077;SDS011;26823;42.662;23.352;2023-07-24T11:10:45;21.50;;;11.45;;
41077;SDS011;26823;42.662;23.352;2023-07-24T11:13:14;21.83;;;14.30;;
41077;SDS011;26823;42.662;23.352;2023-07-24T11:15:44;11.85;;;9.13;;
41077;SDS011;26823;42.662;23.352;2023-07-24T11:18:11;13.50;;;9.02;;
41077;SDS011;26823;42.662;23.352;2023-07-24T11:20:47;13.23;;;8.57;;
41077;SDS011;26823;42.662;23.352;2023-07-24T11:23:15;12.82;;;7.05;;
41077;SDS011;26823;42.662;23.352;2023-07-24T11:25:41;16.00;;;7.35;;
41077;SDS011;26823;42.662;23.352;2023-07-24T11:28:07;18.30;;;6.72;;
41077;SDS011;26823;42.662;23.352;2023-07-24T11:30:33;14.88;;;6.88;;
41077;SDS011;26823;42.662;23.352;2023-07-24T11:33:01;15.00;;;7.30;;
41077;SDS011;26823;42.662;23.352;2023-07-24T11:35:27;10.40;;;7.18;;
41077;SDS011;26823;42.662;23.352;2023-07-24T11:37:53;13.65;;;6.75;;
41077;SDS011;26823;42.662;23.352;2023-07-24T11:40:18;9.95;;;7.00;;
41077;SDS011;26823;42.662;23.352;2023-07-24T11:42:46;13.25;;;7.47;;
41077;SDS011;26823;42.662;23.352;2023-07-24T11:45:12;15.48;;;8.52;;
41077;SDS011;26823;42.662;23.352;2023-07-24T11:47:42;14.50;;;8.60;;
41077;SDS011;26823;42.662;23.352;2023-07-24T11:50:07;11.90;;;7.70;;
41077;SDS011;26823;42.662;23.352;2023-07-24T11:55:13;12.88;;;7.97;;
41077;SDS011;26823;42.662;23.352;2023-07-24T11:57:39;12.05;;;8.30;;
41077;SDS011;26823;42.662;23.352;2023-07-24T12:00:05;16.55;;;9.00;;
41077;SDS011;26823;42.662;23.352;2023-07-24T12:02:42;16.33;;;7.80;;
41077;SDS011;26823;42.662;23.352;2023-07-24T12:05:09;14.98;;;8.52;;
41077;SDS011;26823;42.662;23.352;2023-07-24T12:07:35;12.82;;;8.35;;
41077;SDS011;26823;42.662;23.352;2023-07-24T12:10:02;16.35;;;10.95;;
41077;SDS011;26823;42.662;23.352;2023-07-24T12:12:38;14.48;;;7.50;;
41077;SDS011;26823;42.662;23.352;2023-07-24T12:15:10;16.00;;;8.85;;
41077;SDS011;26823;42.662;23.352;2023-07-24T12:17:36;12.80;;;8.48;;
41077;SDS011;26823;42.662;23.352;2023-07-24T12:20:03;10.05;;;7.50;;
41077;SDS011;26823;42.662;23.352;2023-07-24T12:22:30;12.10;;;7.70;;
41077;SDS011;26823;42.662;23.352;2023-07-24T12:24:56;11.77;;;8.63;;
41077;SDS011;26823;42.662;23.352;2023-07-24T12:27:21;11.90;;;7.40;;
41077;SDS011;26823;42.662;23.352;2023-07-24T12:29:47;13.63;;;8.10;;
41077;SDS011;26823;42.662;23.352;2023-07-24T12:32:12;9.82;;;7.63;;
41077;SDS011;26823;42.662;23.352;2023-07-24T12:34:38;14.65;;;7.88;;
41077;SDS011;26823;42.662;23.352;2023-07-24T12:37:03;11.27;;;7.55;;
41077;SDS011;26823;42.662;23.352;2023-07-24T12:39:29;11.70;;;7.28;;
41077;SDS011;26823;42.662;23.352;2023-07-24T12:41:54;14.52;;;7.93;;
41077;SDS011;26823;42.662;23.352;2023-07-24T12:44:19;9.98;;;6.90;;
41077;SDS011;26823;42.662;23.352;2023-07-24T12:46:45;10.45;;;7.57;;
41077;SDS011;26823;42.662;23.352;2023-07-24T12:49:10;15.10;;;7.93;;
41077;SDS011;26823;42.662;23.352;2023-07-24T12:51:35;11.60;;;7.82;;
41077;SDS011;26823;42.662;23.352;2023-07-24T12:54:01;13.85;;;7.30;;
41077;SDS011;26823;42.662;23.352;2023-07-24T12:56:27;11.68;;;7.25;;
41077;SDS011;26823;42.662;23.352;2023-07-24T12:58:52;11.05;;;7.32;;
41077;SDS011;26823;42.662;23.352;2023-07-24T13:01:17;10.80;;;7.70;;
41077;SDS011;26823;42.662;23.352;2023-07-24T13:03:43;12.15;;;7.20;;
41077;SDS011;26823;42.662;23.352;2023-07-24T13:06:08;15.20;;;8.07;;
41077;SDS011;26823;42.662;23.352;2023-07-24T13:08:33;12.60;;;7.78;;
41077;SDS011;26823;42.662;23.352;2023-07-24T13:10:59;12.88;;;7.50;;
41077;SDS011;26823;42.662;23.352;2023-07-24T13:13:25;12.32;;;7.50;;
41077;SDS011;26823;42.662;23.352;2023-07-24T13:15:50;9.65;;;8.05;;
41077;SDS011;26823;42.662;23.352;2023-07-24T13:18:16;10.95;;;7.60;;
41077;SDS011;26823;42.662;23.352;2023-07-24T13:20:44;11.55;;;7.60;;
41077;SDS011;26823;42.662;23.352;2023-07-24T13:23:10;12.40;;;8.13;;
41077;SDS011;26823;42.662;23.352;2023-07-24T13:25:35;12.82;;;8.02;;
41077;SDS011;26823;42.662;23.352;2023-07-24T13:28:01;9.18;;;7.25;;
41077;SDS011;26823;42.662;23.352;2023-07-24T13:30:26;14.98;;;8.02;;
41077;SDS011;26823;42.662;23.352;2023-07-24T13:32:51;11.13;;;7.22;;
41077;SDS011;26823;42.662;23.352;2023-07-24T13:35:17;13.70;;;7.70;;
41077;SDS011;26823;42.662;23.352;2023-07-24T13:37:42;11.73;;;7.95;;
41077;SDS011;26823;42.662;23.352;2023-07-24T13:40:08;10.25;;;7.28;;
41077;SDS011;26823;42.662;23.352;2023-07-24T13:42:33;11.13;;;7.78;;
41077;SDS011;26823;42.662;23.352;2023-07-24T13:44:59;12.40;;;7.18;;
41077;SDS011;26823;42.662;23.352;2023-07-24T13:47:24;10.00;;;7.10;;
41077;SDS011;26823;42.662;23.352;2023-07-24T13:49:50;15.25;;;9.18;;
41077;SDS011;26823;42.662;23.352;2023-07-24T13:52:15;10.75;;;7.22;;
41077;SDS011;26823;42.662;23.352;2023-07-24T13:54:41;10.32;;;7.63;;
41077;SDS011;26823;42.662;23.352;2023-07-24T13:57:06;12.02;;;7.63;;
41077;SDS011;26823;42.662;23.352;2023-07-24T13:59:35;11.88;;;8.10;;
41077;SDS011;26823;42.662;23.352;2023-07-24T14:02:05;11.82;;;8.18;;
41077;SDS011;26823;42.662;23.352;2023-07-24T14:04:31;10.77;;;8.57;;
41077;SDS011;26823;42.662;23.352;2023-07-24T14:06:56;12.23;;;8.30;;
41077;SDS011;26823;42.662;23.352;2023-07-24T14:09:22;11.80;;;8.00;;
41077;SDS011;26823;42.662;23.352;2023-07-24T14:11:47;11.45;;;7.85;;
41077;SDS011;26823;42.662;23.352;2023-07-24T14:14:12;11.68;;;7.80;;
41077;SDS011;26823;42.662;23.352;2023-07-24T14:16:38;12.32;;;8.32;;
41077;SDS011;26823;42.662;23.352;2023-07-24T14:19:03;13.35;;;8.20;;
41077;SDS011;26823;42.662;23.352;2023-07-24T14:21:29;10.15;;;8.45;;
41077;SDS011;26823;42.662;23.352;2023-07-24T14:23:54;13.27;;;8.27;;
41077;SDS011;26823;42.662;23.352;2023-07-24T14:26:20;12.63;;;8.77;;